Time;durP1;ratioP1;P1;durP2;ratioP2;P2;SDS_P1;SDS_P2;PMS_P1;PMS_P2;Temp;Humidity;BMP_temperature;BMP_pressure;BME280_temperature;BME280_humidity;BME280_pressure;Samples;Min_cycle;Max_cycle;Signal;HPM_P1;HPM_P2
2023/01/20 00:01:08;;;;;;;10.15;6.63;;;;;;;-143.48;94.07;118439.88;5015488;28;20029;-39
2023/01/20 00:03:34;;;;;;;10.13;6.57;;;;;;;-143.48;93.75;118439.88;5034905;28;20072;-39
2023/01/20 00:05:59;;;;;;;9.30;6.85;;;;;;;-143.48;93.92;118439.88;5036967;28;20029;-39
2023/01/20 00:08:25;;;;;;;9.73;6.40;;;;;;;-143.48;94.03;118439.88;5037264;28;20022;-39
2023/01/20 00:10:50;;;;;;;11.05;6.03;;;;;;;-143.48;93.89;118439.88;5037154;28;20022;-39
2023/01/20 00:13:16;;;;;;;12.60;6.47;;;;;;;-143.48;93.84;118439.88;5036906;28;20464;-39
2023/01/20 00:15:41;;;;;;;10.18;6.68;;;;;;;-143.48;93.84;118439.88;5036801;28;20108;-40
2023/01/20 00:18:06;;;;;;;10.25;6.70;;;;;;;-143.48;93.91;118439.88;5037199;28;20100;-39
2023/01/20 00:20:31;;;;;;;10.27;6.75;;;;;;;-143.48;94.04;118439.88;5036830;28;20036;-39
2023/01/20 00:22:57;;;;;;;10.05;6.55;;;;;;;-143.48;93.73;118439.88;5037321;28;20025;-39
2023/01/20 00:25:22;;;;;;;10.63;6.55;;;;;;;-143.48;93.19;118439.88;5036850;28;20104;-40
2023/01/20 00:27:49;;;;;;;11.48;6.70;;;;;;;-143.48;92.81;118439.88;5036972;28;20029;-39
2023/01/20 00:30:15;;;;;;;12.32;7.05;;;;;;;-143.48;92.26;118439.88;5036942;28;20100;-39
2023/01/20 00:32:44;;;;;;;11.75;6.95;;;;;;;-143.48;92.43;118439.88;5036890;28;20484;-39
2023/01/20 00:35:10;;;;;;;12.48;7.18;;;;;;;-143.48;92.34;118439.88;5036806;28;20479;-39
2023/01/20 00:37:35;;;;;;;12.95;6.90;;;;;;;-143.48;92.33;118439.88;5036387;28;20029;-39
2023/01/20 00:40:01;;;;;;;11.82;6.72;;;;;;;-143.48;92.32;118439.88;5036508;28;20037;-39
2023/01/20 00:42:27;;;;;;;10.25;6.72;;;;;;;-143.48;92.61;118439.88;5036675;28;20029;-39
2023/01/20 00:44:52;;;;;;;12.10;6.75;;;;;;;-143.48;92.55;118439.88;5036586;28;20428;-39
2023/01/20 00:47:19;;;;;;;12.27;7.22;;;;;;;-143.48;92.19;118439.88;5036292;28;20546;-39
2023/01/20 00:49:45;;;;;;;15.38;7.38;;;;;;;-143.48;92.97;118439.88;5036438;28;20018;-39
2023/01/20 00:52:10;;;;;;;13.02;7.50;;;;;;;-143.48;92.66;118439.88;5036225;28;20018;-39
2023/01/20 00:54:36;;;;;;;14.02;7.70;;;;;;;-143.48;92.65;118439.88;5036479;28;20028;-40
2023/01/20 00:57:01;;;;;;;13.82;7.63;;;;;;;-143.48;92.04;118439.88;5036342;28;20515;-39
2023/01/20 00:59:26;;;;;;;13.32;7.72;;;;;;;-143.48;92.54;118439.88;5035969;28;20128;-39
2023/01/20 01:01:51;;;;;;;14.95;7.15;;;;;;;-143.48;92.34;118439.88;5036071;28;20025;-39
2023/01/20 01:04:17;;;;;;;12.55;7.88;;;;;;;-143.48;92.68;118439.88;5036301;28;20032;-39
2023/01/20 01:06:42;;;;;;;13.50;7.60;;;;;;;-143.48;92.63;118439.88;5036230;28;20036;-40
2023/01/20 01:09:07;;;;;;;12.80;8.15;;;;;;;-143.48;92.83;118439.88;5035891;28;20498;-39
2023/01/20 01:11:32;;;;;;;13.30;7.55;;;;;;;-143.48;92.80;118439.88;5036138;28;20036;-39
2023/01/20 01:13:58;;;;;;;14.40;8.65;;;;;;;-143.48;93.16;118439.88;5035621;28;20411;-39
2023/01/20 01:16:23;;;;;;;14.13;8.20;;;;;;;-143.48;92.67;118439.88;5035448;28;20033;-39
2023/01/20 01:18:52;;;;;;;12.95;8.18;;;;;;;-143.48;92.44;118439.88;5036000;28;20378;-39
2023/01/20 01:21:17;;;;;;;13.75;8.68;;;;;;;-143.48;92.25;118439.88;5035642;28;20546;-39
2023/01/20 01:23:43;;;;;;;16.45;8.88;;;;;;;-143.48;92.23;118439.88;5035919;28;20033;-40
2023/01/20 01:26:09;;;;;;;17.05;9.82;;;;;;;-143.48;92.49;118439.88;5035910;28;20049;-39
2023/01/20 01:28:35;;;;;;;17.88;9.70;;;;;;;-143.48;92.63;118439.88;5035765;28;20105;-39
2023/01/20 01:31:01;;;;;;;19.55;10.65;;;;;;;-143.48;93.54;118439.88;5035368;28;20431;-39
2023/01/20 01:33:28;;;;;;;19.83;10.65;;;;;;;-143.48;94.15;118439.88;5017449;28;20056;-39
2023/01/20 01:35:57;;;;;;;21.40;10.80;;;;;;;-143.48;94.25;118439.88;5035700;28;20024;-39
2023/01/20 01:38:23;;;;;;;21.50;11.45;;;;;;;-143.48;94.09;118439.88;5034689;28;20029;-39
2023/01/20 01:40:49;;;;;;;22.05;11.93;;;;;;;-143.48;93.73;118439.88;5033285;28;20025;-39
2023/01/20 01:43:25;;;;;;;22.08;11.18;;;;;;;-143.48;94.07;118439.88;5033041;28;20025;-39
2023/01/20 01:45:50;;;;;;;23.33;11.32;;;;;;;-143.48;94.40;118439.88;5033056;28;20038;-39
2023/01/20 01:48:19;;;;;;;23.98;11.70;;;;;;;-143.48;94.05;118439.88;5015328;28;20468;-39
2023/01/20 01:50:54;;;;;;;23.77;12.02;;;;;;;-143.48;94.14;118439.88;5033002;28;20427;-39
2023/01/20 01:53:19;;;;;;;25.77;13.30;;;;;;;-143.48;94.15;118439.88;5033429;28;20498;-39
2023/01/20 01:55:50;;;;;;;27.98;14.70;;;;;;;-143.48;94.13;118439.88;5035337;28;20025;-39
2023/01/20 01:58:21;;;;;;;29.58;14.90;;;;;;;-143.48;94.85;118439.88;5035433;28;20049;-39
2023/01/20 02:00:47;;;;;;;29.65;15.23;;;;;;;-143.48;95.21;118439.88;5035250;28;20504;-39
2023/01/20 02:03:13;;;;;;;32.30;16.40;;;;;;;-143.48;95.03;118439.88;5034926;28;20029;-42
2023/01/20 02:05:39;;;;;;;31.13;15.73;;;;;;;-143.48;94.22;118439.88;5034625;28;20022;-39
2023/01/20 02:08:06;;;;;;;38.42;16.95;;;;;;;-143.48;94.64;118439.88;5035427;28;20025;-39
2023/01/20 02:10:32;;;;;;;36.90;16.67;;;;;;;-143.48;94.75;118439.88;5035057;28;20029;-39
2023/01/20 02:12:59;;;;;;;35.50;17.90;;;;;;;-143.48;94.67;118439.88;5034707;28;20029;-39
2023/01/20 02:15:31;;;;;;;38.63;16.83;;;;;;;-143.48;94.97;118439.88;5034576;28;20029;-39
2023/01/20 02:18:10;;;;;;;39.53;17.75;;;;;;;-143.48;94.88;118439.88;5034900;28;20048;-39
2023/01/20 02:21:06;;;;;;;38.42;17.48;;;;;;;-143.48;95.18;118439.88;5035131;28;20025;-39
2023/01/20 02:23:57;;;;;;;40.47;18.10;;;;;;;-143.48;95.05;118439.88;5035076;28;20033;-39
2023/01/20 02:26:47;;;;;;;43.63;18.38;;;;;;;-143.48;94.74;118439.88;5033371;28;20037;-39
2023/01/20 02:29:32;;;;;;;39.92;18.55;;;;;;;-143.48;94.89;118439.88;5034971;28;20025;-39
2023/01/20 02:32:03;;;;;;;41.95;17.77;;;;;;;-143.48;94.85;118439.88;5034641;28;20112;-39
2023/01/20 02:34:34;;;;;;;41.70;18.00;;;;;;;-143.48;94.69;118439.88;5034536;28;20443;-39
2023/01/20 02:37:11;;;;;;;37.20;17.08;;;;;;;-143.48;94.45;118439.88;5034326;28;20033;-39
2023/01/20 02:39:48;;;;;;;39.13;18.65;;;;;;;-143.48;93.90;118439.88;5034747;28;20037;-39
2023/01/20 02:42:21;;;;;;;38.28;18.30;;;;;;;-143.48;94.14;118439.88;5034451;28;20029;-39
2023/01/20 02:44:54;;;;;;;37.85;18.95;;;;;;;-143.48;94.00;118439.88;5034311;28;20029;-39
2023/01/20 02:47:22;;;;;;;;;;;;;;;-143.48;94.20;118439.88;5034767;28;20037;-39
2023/01/20 02:49:58;;;;;;;41.92;17.88;;;;;;;-143.48;94.23;118439.88;5034143;28;19909;-39
2023/01/20 02:52:46;;;;;;;37.92;17.70;;;;;;;-143.48;94.07;118439.88;5034281;28;20511;-39
2023/01/20 02:55:18;;;;;;;38.42;17.35;;;;;;;-143.48;94.25;118439.88;5033839;28;20022;-39
2023/01/20 02:57:50;;;;;;;35.25;16.92;;;;;;;-143.48;94.01;118439.88;5034066;28;20435;-39
2023/01/20 03:00:21;;;;;;;37.60;17.42;;;;;;;-143.48;94.15;118439.88;5033825;28;20101;-39
2023/01/20 03:02:51;;;;;;;38.83;18.23;;;;;;;-143.48;93.97;118439.88;5034330;28;20032;-39
2023/01/20 03:05:21;;;;;;;34.63;16.80;;;;;;;-143.48;94.76;118439.88;5033693;28;20376;-39
2023/01/20 03:07:48;;;;;;;38.33;16.58;;;;;;;-143.48;94.50;118439.88;5033716;28;20494;-39
2023/01/20 03:10:17;;;;;;;38.20;16.88;;;;;;;-143.48;94.62;118439.88;5033635;28;20025;-39
2023/01/20 03:12:52;;;;;;;35.67;16.67;;;;;;;-143.48;94.59;118439.88;5033662;28;20385;-39
2023/01/20 03:15:23;;;;;;;40.42;16.83;;;;;;;-143.48;94.64;118439.88;5033619;28;20099;-39
2023/01/20 03:17:48;;;;;;;34.90;16.75;;;;;;;-143.48;94.17;118439.88;5034418;28;20405;-39
2023/01/20 03:20:14;;;;;;;32.72;16.40;;;;;;;-143.48;94.09;118439.88;5033867;28;20041;-39
2023/01/20 03:22:39;;;;;;;33.35;16.70;;;;;;;-143.48;94.28;118439.88;5034490;28;20380;-39
2023/01/20 03:25:07;;;;;;;35.10;16.00;;;;;;;-143.48;94.33;118439.88;5033689;28;20032;-39
2023/01/20 03:27:32;;;;;;;33.03;15.80;;;;;;;-143.48;94.03;118439.88;5033782;28;20379;-39
2023/01/20 03:29:58;;;;;;;33.17;15.95;;;;;;;-143.48;93.87;118439.88;5033463;28;20029;-39
2023/01/20 03:32:25;;;;;;;38.20;16.10;;;;;;;-143.48;94.01;118439.88;5033409;28;20496;-39
2023/01/20 03:34:53;;;;;;;37.50;17.05;;;;;;;-143.48;93.82;118439.88;5015675;28;20026;-39
2023/01/20 03:37:19;;;;;;;34.05;16.75;;;;;;;-143.48;94.35;118439.88;5033097;28;20102;-39
2023/01/20 03:39:44;;;;;;;35.13;16.25;;;;;;;-143.48;94.25;118439.88;5033409;28;20061;-39
2023/01/20 03:42:17;;;;;;;33.63;16.42;;;;;;;-143.48;94.79;118439.88;5033568;28;20032;-39
2023/01/20 03:45:23;;;;;;;38.78;17.23;;;;;;;-143.48;94.79;118439.88;5033146;28;20033;-40
2023/01/20 03:47:54;;;;;;;39.58;17.23;;;;;;;-143.48;94.82;118439.88;5020142;28;20041;-39
2023/01/20 03:50:38;;;;;;;37.10;16.75;;;;;;;-143.48;94.73;118439.88;5033364;28;20060;-39
2023/01/20 03:53:21;;;;;;;38.35;17.80;;;;;;;-143.48;94.13;118439.88;5033229;28;20101;-39
2023/01/20 03:55:52;;;;;;;39.00;16.65;;;;;;;-143.48;94.33;118439.88;5033132;28;20049;-39
2023/01/20 03:58:23;;;;;;;37.55;17.00;;;;;;;-143.48;94.28;118439.88;5033137;28;20042;-39
2023/01/20 04:00:50;;;;;;;43.15;18.23;;;;;;;-143.48;94.61;118439.88;5033197;28;20423;-40
2023/01/20 04:03:22;;;;;;;39.63;18.13;;;;;;;-143.48;95.01;118439.88;5033162;28;20090;-39
2023/01/20 04:05:49;;;;;;;36.30;17.38;;;;;;;-143.48;94.72;118439.88;5015278;28;20060;-39
2023/01/20 04:08:17;;;;;;;41.00;17.92;;;;;;;-143.48;94.51;118439.88;5015441;28;20017;-39
2023/01/20 04:10:46;;;;;;;38.33;16.80;;;;;;;-143.48;94.79;118439.88;5033015;28;20404;-39
2023/01/20 04:13:13;;;;;;;42.38;19.30;;;;;;;-143.48;94.66;118439.88;5033084;28;20502;-39
2023/01/20 04:15:43;;;;;;;44.30;18.85;;;;;;;-143.48;95.11;118439.88;5033066;28;20465;-39
2023/01/20 04:18:14;;;;;;;43.13;18.15;;;;;;;-143.48;94.80;118439.88;5032900;28;20025;-39
2023/01/20 04:20:40;;;;;;;43.15;19.05;;;;;;;-143.48;95.27;118439.88;5033250;28;20108;-40
2023/01/20 04:23:07;;;;;;;40.80;18.17;;;;;;;-143.48;95.53;118439.88;5033235;28;20029;-39
2023/01/20 04:25:33;;;;;;;47.30;20.13;;;;;;;-143.48;95.49;118439.88;5032792;28;20026;-39
2023/01/20 04:27:59;;;;;;;40.13;18.13;;;;;;;-143.48;95.32;118439.88;5033033;28;20032;-39
2023/01/20 04:30:24;;;;;;;40.28;18.55;;;;;;;-143.48;95.44;118439.88;5033203;28;20021;-39
2023/01/20 04:32:49;;;;;;;41.05;18.25;;;;;;;-143.48;95.83;118439.88;5032870;28;20037;-39
2023/01/20 04:35:17;;;;;;;44.90;18.88;;;;;;;-143.48;95.62;118439.88;5033383;28;20022;-39
2023/01/20 04:37:42;;;;;;;44.22;19.08;;;;;;;-143.48;95.22;118439.88;5033087;28;20025;-39
2023/01/20 04:40:08;;;;;;;46.67;19.55;;;;;;;-143.48;95.21;118439.88;5032742;28;20361;-39
2023/01/20 04:42:34;;;;;;;41.13;18.65;;;;;;;-143.48;95.29;118439.88;5032834;28;20468;-39
2023/01/20 04:44:59;;;;;;;43.00;18.85;;;;;;;-143.48;95.22;118439.88;5032697;28;20032;-39
2023/01/20 04:47:25;;;;;;;45.13;19.90;;;;;;;-143.48;95.81;118439.88;5032751;28;20034;-39
2023/01/20 04:49:50;;;;;;;44.30;18.48;;;;;;;-143.48;96.37;118439.88;5033260;28;20025;-39
2023/01/20 04:52:16;;;;;;;46.08;20.63;;;;;;;-143.48;96.34;118439.88;5036296;28;20033;-40
2023/01/20 04:54:41;;;;;;;48.75;20.35;;;;;;;-143.48;95.55;118439.88;5036202;28;20472;-39
2023/01/20 04:57:07;;;;;;;46.58;20.40;;;;;;;-143.48;95.86;118439.88;5018597;28;20037;-39
2023/01/20 04:59:32;;;;;;;51.08;21.20;;;;;;;-143.48;95.40;118439.88;5036090;28;20076;-39
2023/01/20 05:01:57;;;;;;;45.78;19.42;;;;;;;-143.48;95.76;118439.88;5036327;28;20436;-39
2023/01/20 05:04:23;;;;;;;50.58;21.85;;;;;;;-143.48;95.90;118439.88;5036552;28;20036;-39
2023/01/20 05:06:48;;;;;;;47.90;20.85;;;;;;;-143.48;95.93;118439.88;5036291;28;20033;-39
2023/01/20 05:09:15;;;;;;;50.00;20.27;;;;;;;-143.48;96.22;118439.88;5035940;28;20100;-39
2023/01/20 05:11:41;;;;;;;53.20;19.65;;;;;;;-143.48;96.41;118439.88;5035787;28;20032;-39
2023/01/20 05:14:06;;;;;;;54.10;20.80;;;;;;;-143.48;96.56;118439.88;5035874;28;20071;-39
2023/01/20 05:16:32;;;;;;;56.53;21.02;;;;;;;-143.48;96.15;118439.88;5036137;28;20464;-39
2023/01/20 05:18:58;;;;;;;49.88;20.92;;;;;;;-143.48;96.23;118439.88;5036767;28;20369;-39
2023/01/20 05:21:24;;;;;;;49.90;21.40;;;;;;;-143.48;95.89;118439.88;5035758;28;20112;-39
2023/01/20 05:23:51;;;;;;;53.15;21.95;;;;;;;-143.48;95.43;118439.88;5036123;28;20032;-39
2023/01/20 05:26:17;;;;;;;54.65;21.13;;;;;;;-143.48;95.36;118439.88;5035912;28;20033;-39
2023/01/20 05:28:43;;;;;;;53.38;22.33;;;;;;;-143.48;95.05;118439.88;5035798;28;20120;-39
2023/01/20 05:31:08;;;;;;;57.85;21.83;;;;;;;-143.48;95.62;118439.88;5035578;28;20104;-39
2023/01/20 05:33:34;;;;;;;54.83;22.52;;;;;;;-143.48;95.71;118439.88;5035615;28;20538;-39
2023/01/20 05:36:04;;;;;;;49.60;20.75;;;;;;;-143.48;95.57;118439.88;5035712;28;20144;-39
2023/01/20 05:38:29;;;;;;;62.00;23.17;;;;;;;-143.48;95.83;118439.88;5035355;28;20060;-39
2023/01/20 05:40:59;;;;;;;66.25;23.65;;;;;;;-143.48;96.39;118439.88;5035699;28;20049;-39
2023/01/20 05:43:25;;;;;;;64.05;23.10;;;;;;;-143.48;96.08;118439.88;5035341;28;20030;-39
2023/01/20 05:45:50;;;;;;;55.00;21.23;;;;;;;-143.48;96.56;118439.88;5035416;28;20018;-39
2023/01/20 05:48:15;;;;;;;65.55;22.50;;;;;;;-143.48;97.01;118439.88;5035214;28;20487;-40
2023/01/20 05:50:41;;;;;;;64.15;22.65;;;;;;;-143.48;97.23;118439.88;5035137;28;20026;-40
2023/01/20 05:53:07;;;;;;;66.00;23.42;;;;;;;-143.48;97.21;118439.88;5034938;28;20021;-39
2023/01/20 05:55:32;;;;;;;63.30;24.13;;;;;;;-143.48;97.30;118439.88;5034994;28;20029;-39
2023/01/20 05:58:01;;;;;;;65.90;23.50;;;;;;;-143.48;97.29;118439.88;5034815;28;20077;-39
2023/01/20 06:00:26;;;;;;;61.63;23.40;;;;;;;-143.48;96.70;118439.88;5034965;28;20072;-39
2023/01/20 06:02:52;;;;;;;64.40;24.23;;;;;;;-143.48;97.14;118439.88;5035169;28;20464;-39
2023/01/20 06:05:17;;;;;;;61.00;23.98;;;;;;;-143.48;96.95;118439.88;5034801;28;20033;-40
2023/01/20 06:07:42;;;;;;;65.68;24.33;;;;;;;-143.48;97.62;118439.88;5035022;28;20032;-40
2023/01/20 06:10:08;;;;;;;66.45;23.25;;;;;;;-143.48;97.34;118439.88;5034997;28;20036;-40
2023/01/20 06:12:34;;;;;;;61.78;22.48;;;;;;;-143.48;97.09;118439.88;5034673;28;20032;-40
2023/01/20 06:14:59;;;;;;;61.10;22.08;;;;;;;-143.48;96.96;118439.88;5034777;28;20022;-40
2023/01/20 06:17:24;;;;;;;63.35;22.73;;;;;;;-143.48;97.59;118439.88;5034548;28;20029;-39
2023/01/20 06:19:50;;;;;;;56.08;22.10;;;;;;;-143.48;98.00;118439.88;5034832;28;20109;-40
2023/01/20 06:22:15;;;;;;;60.30;20.98;;;;;;;-143.48;97.91;118439.88;5034407;28;20033;-39
2023/01/20 06:24:40;;;;;;;56.08;21.20;;;;;;;-143.48;97.96;118439.88;5034505;28;20022;-39
2023/01/20 06:27:05;;;;;;;61.15;22.23;;;;;;;-143.48;97.81;118439.88;5034430;28;20028;-39
2023/01/20 06:29:31;;;;;;;63.95;23.10;;;;;;;-143.48;97.40;118439.88;5034435;28;20108;-40
2023/01/20 06:32:00;;;;;;;53.25;22.45;;;;;;;-143.48;96.99;118439.88;5034320;28;20034;-40
2023/01/20 06:34:27;;;;;;;54.45;21.42;;;;;;;-143.48;97.11;118439.88;5017208;28;20411;-40
2023/01/20 06:36:52;;;;;;;60.42;22.63;;;;;;;-143.48;96.71;118439.88;5034261;28;20067;-40
2023/01/20 06:39:17;;;;;;;60.95;22.88;;;;;;;-143.48;96.67;118439.88;5033968;28;20025;-39
2023/01/20 06:41:58;;;;;;;57.45;21.35;;;;;;;-143.48;97.47;118439.88;5033013;28;20030;-40
2023/01/20 06:44:27;;;;;;;58.75;21.20;;;;;;;-143.48;96.70;118439.88;4999630;28;20179;-40
2023/01/20 06:46:53;;;;;;;55.28;21.92;;;;;;;-143.48;96.78;118439.88;5016377;28;20032;-40
2023/01/20 06:49:29;;;;;;;58.67;22.38;;;;;;;-143.48;96.42;118439.88;5016805;28;20084;-40
2023/01/20 06:51:55;;;;;;;62.58;23.08;;;;;;;-143.48;96.45;118439.88;5033516;28;20022;-41
2023/01/20 06:54:24;;;;;;;58.38;22.55;;;;;;;-143.48;96.50;118439.88;5033972;28;20032;-40
2023/01/20 06:56:49;;;;;;;62.13;20.25;;;;;;;-143.48;96.52;118439.88;5016183;28;20021;-40
2023/01/20 06:59:14;;;;;;;63.58;22.65;;;;;;;-143.48;96.77;118439.88;5033494;28;20068;-40
2023/01/20 07:01:40;;;;;;;67.28;23.27;;;;;;;-143.48;96.83;118439.88;5033862;28;20028;-40
2023/01/20 07:04:07;;;;;;;62.33;23.75;;;;;;;-143.48;96.79;118439.88;5033442;28;20063;-41
2023/01/20 07:06:37;;;;;;;62.25;23.95;;;;;;;-143.48;97.29;118439.88;5033681;28;20468;-40
2023/01/20 07:09:04;;;;;;;61.90;22.88;;;;;;;-143.48;97.34;118439.88;5033725;28;20372;-39
2023/01/20 07:11:30;;;;;;;64.70;24.08;;;;;;;-143.48;97.56;118439.88;5033718;28;20022;-40
2023/01/20 07:13:55;;;;;;;71.72;24.75;;;;;;;-143.48;97.53;118439.88;5032310;28;20056;-40
2023/01/20 07:16:21;;;;;;;70.45;24.38;;;;;;;-143.48;97.30;118439.88;5032780;28;20056;-40
2023/01/20 07:18:48;;;;;;;67.35;24.90;;;;;;;-143.48;96.95;118439.88;5033412;28;20108;-40
2023/01/20 07:21:14;;;;;;;69.93;24.65;;;;;;;-143.48;97.04;118439.88;5015745;28;20022;-39
2023/01/20 07:23:44;;;;;;;77.22;25.70;;;;;;;-143.48;96.96;118439.88;5033709;28;20490;-41
2023/01/20 07:26:13;;;;;;;71.05;24.63;;;;;;;-143.48;96.94;118439.88;5015659;28;20033;-40
2023/01/20 07:28:38;;;;;;;71.88;25.75;;;;;;;-143.48;96.96;118439.88;5032793;28;20026;-40
2023/01/20 07:31:09;;;;;;;69.47;23.88;;;;;;;-143.48;97.25;118439.88;5032769;28;20030;-40
2023/01/20 07:33:35;;;;;;;64.47;23.40;;;;;;;-143.48;97.25;118439.88;5031113;28;20096;-40
2023/01/20 07:36:01;;;;;;;69.63;24.02;;;;;;;-143.48;97.86;118439.88;5030868;28;20109;-40
2023/01/20 07:38:27;;;;;;;72.07;25.15;;;;;;;-143.48;97.26;118439.88;5031188;28;20017;-41
2023/01/20 07:40:55;;;;;;;62.55;22.88;;;;;;;-143.48;97.23;118439.88;5031346;28;20472;-40
2023/01/20 07:43:20;;;;;;;66.57;23.65;;;;;;;-143.48;96.88;118439.88;5031305;28;20041;-39
2023/01/20 07:45:45;;;;;;;65.90;23.52;;;;;;;-143.48;96.96;118439.88;5031252;28;20044;-40
2023/01/20 07:48:11;;;;;;;64.68;23.75;;;;;;;-143.48;96.76;118439.88;5032325;28;20025;-40
2023/01/20 07:50:36;;;;;;;68.75;24.40;;;;;;;-143.48;96.90;118439.88;5033177;28;20494;-39
2023/01/20 07:53:02;;;;;;;62.90;23.35;;;;;;;-143.48;97.18;118439.88;5016066;28;20030;-39
2023/01/20 07:55:28;;;;;;;62.67;23.65;;;;;;;-143.48;97.52;118439.88;5033090;28;20021;-40
2023/01/20 07:57:53;;;;;;;73.38;24.40;;;;;;;-143.48;97.27;118439.88;5033325;28;20045;-39
2023/01/20 08:00:19;;;;;;;62.08;24.10;;;;;;;-143.48;97.17;118439.88;5033169;28;20021;-39
2023/01/20 08:02:44;;;;;;;65.15;23.13;;;;;;;-143.48;97.55;118439.88;5032746;28;20441;-39
2023/01/20 08:05:10;;;;;;;64.15;23.02;;;;;;;-143.48;97.68;118439.88;5031930;28;20095;-40
2023/01/20 08:07:35;;;;;;;67.55;24.13;;;;;;;-143.48;97.07;118439.88;5032705;28;20029;-39
2023/01/20 08:10:01;;;;;;;60.90;22.38;;;;;;;-143.48;97.04;118439.88;5033105;28;20021;-39
2023/01/20 08:12:28;;;;;;;61.85;21.33;;;;;;;-143.48;96.83;118439.88;5033191;28;20029;-40
2023/01/20 08:14:53;;;;;;;58.67;22.17;;;;;;;-143.48;97.64;118439.88;5033051;28;20080;-39
2023/01/20 08:17:18;;;;;;;57.60;22.38;;;;;;;-143.48;97.01;118439.88;5032704;28;20034;-40
2023/01/20 08:19:43;;;;;;;60.33;22.10;;;;;;;-143.48;96.57;118439.88;5032626;28;20033;-39
2023/01/20 08:22:09;;;;;;;60.03;22.40;;;;;;;-143.48;97.04;118439.88;5033064;28;20499;-39
2023/01/20 08:24:34;;;;;;;55.92;21.33;;;;;;;-143.48;96.96;118439.88;5035033;28;20037;-39
2023/01/20 08:26:59;;;;;;;59.15;22.20;;;;;;;-143.48;96.91;118439.88;5036825;28;20017;-39
2023/01/20 08:29:25;;;;;;;59.50;21.88;;;;;;;-143.48;97.09;118439.88;5036738;28;20455;-40
2023/01/20 08:31:50;;;;;;;65.07;23.30;;;;;;;-143.48;97.04;118439.88;5036379;28;20120;-40
2023/01/20 08:34:17;;;;;;;60.47;22.45;;;;;;;-143.48;97.04;118439.88;5035853;28;20532;-39
2023/01/20 08:36:43;;;;;;;58.42;21.63;;;;;;;-143.48;97.25;118439.88;5036655;28;20021;-39
2023/01/20 08:39:13;;;;;;;56.83;20.92;;;;;;;-143.48;97.17;118439.88;5037293;28;20075;-39
2023/01/20 08:41:41;;;;;;;58.63;21.33;;;;;;;-143.48;97.50;118439.88;5036304;28;20072;-39
2023/01/20 08:44:07;;;;;;;66.18;23.23;;;;;;;-143.48;97.42;118439.88;5036291;28;20457;-39
2023/01/20 08:46:33;;;;;;;58.42;21.20;;;;;;;-143.48;97.15;118439.88;5036621;28;20044;-39
2023/01/20 08:48:58;;;;;;;57.25;20.98;;;;;;;-143.48;97.39;118439.88;5036407;28;20025;-39
2023/01/20 08:51:30;;;;;;;57.80;21.52;;;;;;;-143.48;96.91;118439.88;5036287;28;20029;-39
2023/01/20 08:53:55;;;;;;;55.42;21.33;;;;;;;-143.48;97.27;118439.88;5036448;28;20516;-39
2023/01/20 08:56:21;;;;;;;58.67;22.67;;;;;;;-143.48;97.22;118439.88;5036428;28;20104;-39
2023/01/20 08:58:46;;;;;;;54.53;21.17;;;;;;;-143.48;96.90;118439.88;5036094;28;20066;-39
2023/01/20 09:01:21;;;;;;;53.05;21.63;;;;;;;-143.48;97.04;118439.88;5036416;28;20047;-39
2023/01/20 09:03:47;;;;;;;56.10;21.73;;;;;;;-143.48;97.28;118439.88;5035972;28;20022;-40
2023/01/20 09:06:13;;;;;;;59.15;22.40;;;;;;;-143.48;97.07;118439.88;5034561;28;20096;-39
2023/01/20 09:08:38;;;;;;;54.90;21.92;;;;;;;-143.48;97.42;118439.88;5035904;28;20041;-39
2023/01/20 09:11:20;;;;;;;56.78;22.88;;;;;;;-143.48;97.78;118439.88;5036248;28;20029;-39
2023/01/20 09:13:46;;;;;;;58.85;22.25;;;;;;;-143.48;97.51;118439.88;5035351;28;20542;-39
2023/01/20 09:16:13;;;;;;;56.55;21.63;;;;;;;-143.48;97.40;118439.88;5017847;28;20053;-39
2023/01/20 09:18:38;;;;;;;53.22;20.70;;;;;;;-143.48;97.37;118439.88;5035314;28;20030;-39
2023/01/20 09:21:05;;;;;;;52.75;21.15;;;;;;;-143.48;97.17;118439.88;5034185;28;20024;-41
2023/01/20 09:23:31;;;;;;;50.25;20.13;;;;;;;-143.48;97.48;118439.88;5017787;28;20029;-44
2023/01/20 09:25:58;;;;;;;50.03;20.83;;;;;;;-143.48;98.25;118439.88;5036047;28;20033;-39
2023/01/20 09:28:24;;;;;;;45.78;20.05;;;;;;;-143.48;97.93;118439.88;5035604;28;20021;-40
2023/01/20 09:30:49;;;;;;;46.35;19.80;;;;;;;-143.48;97.58;118439.88;5035469;28;20484;-39
2023/01/20 09:33:15;;;;;;;48.53;20.27;;;;;;;-143.48;97.69;118439.88;5035456;28;20030;-39
2023/01/20 09:35:40;;;;;;;41.13;18.15;;;;;;;-143.48;97.44;118439.88;5033707;28;20036;-40
2023/01/20 09:44:07;;;;;;;42.03;19.55;;;;;;;-143.48;97.13;118439.88;5035674;28;20095;-39
2023/01/20 09:47:18;;;;;;;39.13;17.77;;;;;;;-143.48;96.78;118439.88;5035242;28;20041;-39
2023/01/20 09:55:38;;;;;;;37.60;16.98;;;;;;;-143.48;96.25;118439.88;5020463;28;20123;-39
2023/01/20 09:58:16;;;;;;;39.70;17.45;;;;;;;-143.48;97.16;118439.88;5034734;28;20080;-39
2023/01/20 10:00:47;;;;;;;36.85;17.48;;;;;;;-143.48;97.83;118439.88;5035237;28;20029;-39
2023/01/20 10:03:19;;;;;;;37.47;18.13;;;;;;;-143.48;97.94;118439.88;5035484;28;20028;-39
2023/01/20 10:05:49;;;;;;;36.42;16.77;;;;;;;-143.48;96.75;118439.88;5034365;28;20056;-39
2023/01/20 10:08:20;;;;;;;36.05;17.33;;;;;;;-143.48;96.39;118439.88;5033361;28;20036;-39
2023/01/20 10:10:52;;;;;;;32.03;15.70;;;;;;;-143.48;96.50;118439.88;5034291;28;20535;-39
2023/01/20 10:13:23;;;;;;;30.98;15.65;;;;;;;-143.48;95.69;118439.88;5034878;28;20112;-39
2023/01/20 10:15:53;;;;;;;29.25;14.82;;;;;;;-143.48;96.70;118439.88;5035016;28;20053;-39
2023/01/20 10:18:33;;;;;;;30.98;15.48;;;;;;;-143.48;97.15;118439.88;5034102;28;20067;-40
2023/01/20 10:21:16;;;;;;;31.65;16.23;;;;;;;-143.48;97.02;118439.88;5032608;28;20028;-39
2023/01/20 10:23:50;;;;;;;30.25;15.43;;;;;;;-143.48;97.40;118439.88;5032610;28;20022;-41
2023/01/20 10:26:21;;;;;;;27.75;15.05;;;;;;;-143.48;96.78;118439.88;5032786;28;20482;-39
2023/01/20 10:28:56;;;;;;;26.17;13.77;;;;;;;-143.48;96.13;118439.88;5032988;28;20025;-39
2023/01/20 10:31:26;;;;;;;25.63;14.07;;;;;;;-143.48;96.51;118439.88;5032489;28;20380;-40
2023/01/20 10:33:54;;;;;;;25.73;13.23;;;;;;;-143.48;95.70;118439.88;5033313;28;20033;-39
2023/01/20 10:36:33;;;;;;;23.63;12.60;;;;;;;-143.48;95.26;118439.88;5034524;28;20349;-39
2023/01/20 10:39:16;;;;;;;21.02;11.88;;;;;;;-143.48;95.87;118439.88;5016445;28;20040;-39
2023/01/20 10:41:49;;;;;;;22.92;11.77;;;;;;;-143.48;95.95;118439.88;5034111;28;20053;-39
2023/01/20 10:44:15;;;;;;;23.73;11.55;;;;;;;-143.48;95.65;118439.88;5034017;28;20036;-39
2023/01/20 10:47:15;;;;;;;20.50;12.05;;;;;;;-143.48;95.21;118439.88;5016090;28;20025;-39
2023/01/20 10:50:13;;;;;;;20.75;11.20;;;;;;;-143.48;94.45;118439.88;5033460;28;20033;-38
2023/01/20 10:52:57;;;;;;;19.33;10.63;;;;;;;-143.48;93.82;118439.88;5033875;28;20029;-38
2023/01/20 10:55:37;;;;;;;17.33;10.13;;;;;;;-143.48;93.70;118439.88;5034096;28;20036;-38
2023/01/20 10:58:36;;;;;;;15.60;9.93;;;;;;;-143.48;93.22;118439.88;5033828;28;20049;-38
2023/01/20 11:01:05;;;;;;;17.55;10.35;;;;;;;-143.48;91.96;118439.88;5034174;28;20490;-38
2023/01/20 11:03:35;;;;;;;17.30;10.32;;;;;;;-143.48;91.81;118439.88;5033898;28;20029;-38
2023/01/20 11:06:02;;;;;;;17.20;10.35;;;;;;;-143.48;91.77;118439.88;5034085;28;20435;-38
2023/01/20 11:08:28;;;;;;;18.85;9.90;;;;;;;-143.48;92.65;118439.88;5033920;28;20056;-38
2023/01/20 11:10:57;;;;;;;16.23;9.75;;;;;;;-143.48;92.66;118439.88;5033940;28;20380;-39
2023/01/20 11:13:22;;;;;;;15.55;9.18;;;;;;;-143.48;92.83;118439.88;5033816;28;20045;-45